Time;durP1;ratioP1;P1;durP2;ratioP2;P2;SDS_P1;SDS_P2;PMS_P1;PMS_P2;Temp;Humidity;BMP_temperature;BMP_pressure;BME280_temperature;BME280_humidity;BME280_pressure;Samples;Min_cycle;Max_cycle;Signal;HPM_P1;HPM_P2
2024/01/13 00:00:33;;;;;;;7.97;4.15;;;;;;;-1.85;100.00;99392.91;6109409;19;20009;-71
2024/01/13 00:02:34;;;;;;;8.15;4.22;;;;;;;-1.82;100.00;99392.41;6107486;19;20006;-71
2024/01/13 00:04:34;;;;;;;7.85;4.38;;;;;;;-1.83;100.00;99389.94;6108518;19;20454;-71
2024/01/13 00:06:34;;;;;;;7.85;4.15;;;;;;;-1.79;100.00;99389.13;6109501;19;20006;-71
2024/01/13 00:08:34;;;;;;;8.40;4.55;;;;;;;-1.79;100.00;99393.75;6107949;19;20013;-71
2024/01/13 00:10:35;;;;;;;7.55;4.38;;;;;;;-1.70;100.00;99386.66;6110017;19;20015;-71
2024/01/13 00:12:35;;;;;;;8.55;4.53;;;;;;;-1.67;100.00;99393.44;6107667;19;20006;-71
2024/01/13 00:14:35;;;;;;;8.20;3.97;;;;;;;-1.71;100.00;99380.41;6107914;19;20339;-71
2024/01/13 00:16:36;;;;;;;6.45;3.95;;;;;;;-1.73;100.00;99373.66;6108974;19;20353;-71
2024/01/13 00:18:36;;;;;;;7.20;4.47;;;;;;;-1.72;100.00;99383.41;6108945;19;20040;-71
2024/01/13 00:20:36;;;;;;;7.65;4.28;;;;;;;-1.71;100.00;99376.91;6109053;19;20514;-71
2024/01/13 00:22:36;;;;;;;7.22;4.35;;;;;;;-1.70;100.00;99390.19;6108403;19;20003;-71
2024/01/13 00:24:37;;;;;;;8.95;4.95;;;;;;;-1.74;100.00;99380.97;6107653;19;20067;-71
2024/01/13 00:26:37;;;;;;;7.18;4.32;;;;;;;-1.63;100.00;99383.66;6109956;19;20459;-71
2024/01/13 00:28:37;;;;;;;6.88;3.58;;;;;;;-1.66;100.00;99376.88;6105479;19;20006;-71
2024/01/13 00:30:38;;;;;;;5.88;3.90;;;;;;;-1.64;100.00;99382.84;6109355;19;20002;-71
2024/01/13 00:32:38;;;;;;;6.13;3.63;;;;;;;-1.64;100.00;99371.19;6107976;19;20034;-71
2024/01/13 00:34:39;;;;;;;7.75;4.32;;;;;;;-1.68;100.00;99375.53;6107779;19;20006;-71
2024/01/13 00:36:39;;;;;;;5.78;3.63;;;;;;;-1.73;100.00;99377.19;6108985;19;20006;-71
2024/01/13 00:38:39;;;;;;;6.68;3.70;;;;;;;-1.74;100.00;99369.28;6109220;19;20002;-71
2024/01/13 00:40:39;;;;;;;8.30;4.15;;;;;;;-1.79;100.00;99363.91;6110057;19;20006;-71
2024/01/13 00:42:43;;;;;;;7.35;4.15;;;;;;;-1.78;100.00;99370.94;6109225;19;20002;-71
2024/01/13 00:44:43;;;;;;;9.18;4.80;;;;;;;-1.76;100.00;99366.84;6108341;19;20078;-72
2024/01/13 00:46:43;;;;;;;7.75;3.97;;;;;;;-1.77;100.00;99359.00;6109401;19;20010;-72
2024/01/13 00:48:44;;;;;;;10.32;4.60;;;;;;;-1.76;100.00;99360.63;6097801;19;20014;-72
2024/01/13 00:50:44;;;;;;;8.82;4.90;;;;;;;-1.77;100.00;99354.38;6108930;19;20010;-72
2024/01/13 00:52:44;;;;;;;9.23;4.85;;;;;;;-1.80;100.00;99357.66;6108764;19;20006;-71
2024/01/13 00:54:45;;;;;;;7.45;3.95;;;;;;;-1.83;100.00;99350.06;6107018;19;19999;-71
2024/01/13 00:56:45;;;;;;;7.30;4.22;;;;;;;-1.81;100.00;99349.81;6105939;19;19999;-71
2024/01/13 00:58:45;;;;;;;10.88;5.22;;;;;;;-1.81;100.00;99353.31;6109102;19;20007;-71
2024/01/13 01:00:46;;;;;;;7.68;5.10;;;;;;;-1.82;100.00;99350.88;6109494;19;20005;-71
2024/01/13 01:02:46;;;;;;;7.80;4.43;;;;;;;-1.83;100.00;99339.19;6106650;19;20002;-72
2024/01/13 01:04:46;;;;;;;9.02;4.80;;;;;;;-1.76;100.00;99337.00;6107144;19;20420;-72
2024/01/13 01:06:47;;;;;;;8.98;5.25;;;;;;;-1.75;100.00;99341.34;6106487;19;20022;-72
2024/01/13 01:08:47;;;;;;;9.88;5.25;;;;;;;-1.78;100.00;99333.78;6108513;19;20344;-72
2024/01/13 01:10:48;;;;;;;7.05;4.15;;;;;;;-1.76;100.00;99337.00;6108147;19;20334;-72
2024/01/13 01:12:48;;;;;;;7.18;4.43;;;;;;;-1.78;100.00;99339.19;6108285;19;20462;-72
2024/01/13 01:14:48;;;;;;;6.93;4.88;;;;;;;-1.77;100.00;99335.38;6105931;19;19998;-71
2024/01/13 01:16:48;;;;;;;7.93;4.82;;;;;;;-1.74;100.00;99328.59;6108046;19;20086;-71
2024/01/13 01:18:49;;;;;;;7.93;4.50;;;;;;;-1.75;100.00;99332.41;6108032;19;20015;-72
2024/01/13 01:20:49;;;;;;;8.25;4.88;;;;;;;-1.77;100.00;99323.72;6107971;19;20026;-71
2024/01/13 01:22:49;;;;;;;8.88;5.32;;;;;;;-1.77;100.00;99319.13;6108300;19;20020;-71
2024/01/13 01:24:50;;;;;;;9.82;4.28;;;;;;;-1.74;100.00;99315.03;6107901;19;20023;-72
2024/01/13 01:26:50;;;;;;;8.55;4.65;;;;;;;-1.79;100.00;99312.34;6107697;19;20681;-72
2024/01/13 01:28:50;;;;;;;10.32;5.20;;;;;;;-1.76;100.00;99309.06;6108402;19;20003;-72
2024/01/13 01:30:51;;;;;;;7.88;4.80;;;;;;;-1.74;100.00;99313.16;6108393;19;20030;-72
2024/01/13 01:32:51;;;;;;;9.57;4.85;;;;;;;-1.73;100.00;99322.91;6108232;19;20330;-71
2024/01/13 01:34:52;;;;;;;8.23;4.68;;;;;;;-1.74;100.00;99321.28;6104386;19;20046;-71
2024/01/13 01:36:52;;;;;;;11.48;5.00;;;;;;;-1.70;100.00;99316.13;6106215;19;20396;-71
2024/01/13 01:38:52;;;;;;;9.85;4.90;;;;;;;-1.73;100.00;99313.97;6107866;19;20003;-71
2024/01/13 01:40:54;;;;;;;8.95;4.43;;;;;;;-1.73;100.00;99303.13;6117517;19;20014;-71
2024/01/13 01:42:54;;;;;;;8.93;5.00;;;;;;;-1.70;100.00;99307.97;6119452;19;20269;-71
2024/01/13 01:44:55;;;;;;;10.95;4.75;;;;;;;-1.70;100.00;99302.53;6118048;19;20010;-71
2024/01/13 01:46:59;;;;;;;8.98;5.03;;;;;;;-1.71;100.00;99304.44;6119053;19;20007;-71
2024/01/13 01:48:59;;;;;;;9.68;4.80;;;;;;;-1.73;100.00;99303.91;6112645;19;20083;-71
2024/01/13 01:51:00;;;;;;;11.05;5.15;;;;;;;-1.76;100.00;99303.66;6111236;19;20006;-71
2024/01/13 01:53:00;;;;;;;8.20;5.28;;;;;;;-1.77;100.00;99304.75;6112577;19;20006;-71
2024/01/13 01:55:01;;;;;;;7.32;4.75;;;;;;;-1.79;100.00;99302.31;6108954;19;20516;-71
2024/01/13 01:57:03;;;;;;;9.63;4.88;;;;;;;-1.80;100.00;99295.25;6110849;19;20612;-71
2024/01/13 01:59:03;;;;;;;8.50;4.87;;;;;;;-1.81;100.00;99295.53;6111710;19;20082;-71
2024/01/13 02:01:07;;;;;;;11.18;5.25;;;;;;;-1.84;100.00;99296.88;6111733;19;20272;-71
2024/01/13 02:03:07;;;;;;;7.95;4.57;;;;;;;-1.82;100.00;99302.88;6110580;19;20474;-71
2024/01/13 02:05:08;;;;;;;8.68;5.03;;;;;;;-1.81;100.00;99314.53;6109213;19;20070;-71
2024/01/13 02:07:09;;;;;;;8.88;4.95;;;;;;;-1.83;100.00;99303.94;6108182;19;20006;-71
2024/01/13 02:09:12;;;;;;;8.40;4.40;;;;;;;-1.80;100.00;99310.72;6111247;19;20574;-71
2024/01/13 02:11:12;;;;;;;;;;;;;;;-1.82;100.00;99311.00;6110962;19;20470;-71
2024/01/13 02:13:13;;;;;;;7.30;4.32;;;;;;;-1.83;100.00;99309.34;6111057;19;20019;-71
2024/01/13 02:15:13;;;;;;;9.13;5.50;;;;;;;-1.83;100.00;99293.09;6109907;19;20551;-71
2024/01/13 02:17:13;;;;;;;9.93;5.05;;;;;;;-1.84;100.00;99283.31;6110138;19;20016;-71
2024/01/13 02:19:14;;;;;;;6.65;3.90;;;;;;;-1.82;100.00;99291.19;6110399;19;20408;-72
2024/01/13 02:21:14;;;;;;;7.80;4.63;;;;;;;-1.83;100.00;99295.00;6111265;19;20213;-73
2024/01/13 02:23:14;;;;;;;7.03;3.83;;;;;;;-1.84;100.00;99293.38;6110083;19;20044;-72
2024/01/13 02:25:15;;;;;;;9.23;5.03;;;;;;;-1.82;100.00;99281.16;6109061;19;20434;-72
2024/01/13 02:27:16;;;;;;;7.70;4.70;;;;;;;-1.82;100.00;99283.03;6110117;19;20015;-72
2024/01/13 02:29:16;;;;;;;7.75;4.28;;;;;;;-1.84;100.00;99275.19;6110023;19;20031;-72
2024/01/13 02:31:17;;;;;;;7.75;3.78;;;;;;;-1.70;100.00;99268.09;6110172;19;20003;-71
2024/01/13 02:33:17;;;;;;;6.20;3.80;;;;;;;-1.62;100.00;99279.44;6110002;19;20007;-71
2024/01/13 02:35:17;;;;;;;7.05;3.55;;;;;;;-1.49;100.00;99273.41;6108629;19;20376;-71
2024/01/13 02:37:18;;;;;;;6.65;3.92;;;;;;;-1.44;100.00;99274.19;6109020;19;20097;-71
2024/01/13 02:39:18;;;;;;;5.97;3.42;;;;;;;-1.38;100.00;99276.88;6109786;19;20519;-71
2024/01/13 02:41:19;;;;;;;7.40;3.67;;;;;;;-1.43;100.00;99264.94;6110532;19;20003;-71
2024/01/13 02:43:19;;;;;;;6.70;3.63;;;;;;;-1.43;100.00;99258.72;6108949;19;20494;-71
2024/01/13 02:45:19;;;;;;;6.38;3.42;;;;;;;-1.35;100.00;99260.84;6109714;19;20486;-72
2024/01/13 02:47:27;;;;;;;6.18;3.25;;;;;;;-1.38;100.00;99258.69;6109437;19;20333;-71
2024/01/13 02:49:27;;;;;;;5.72;3.60;;;;;;;-1.36;100.00;99256.50;6117693;19;20364;-71
2024/01/13 02:51:27;;;;;;;8.48;3.97;;;;;;;-1.38;100.00;99253.28;6114548;19;20495;-71
2024/01/13 02:53:28;;;;;;;6.50;3.25;;;;;;;-1.33;100.00;99246.97;6111301;19;20034;-71
2024/01/13 02:55:28;;;;;;;6.90;4.32;;;;;;;-1.35;100.00;99244.56;6111723;19;20011;-71
2024/01/13 02:57:29;;;;;;;6.25;3.80;;;;;;;-1.30;100.00;99249.97;6111861;19;20044;-71
2024/01/13 02:59:29;;;;;;;5.32;3.30;;;;;;;-1.33;100.00;99245.06;6112145;19;20010;-71
2024/01/13 03:01:30;;;;;;;5.72;3.30;;;;;;;-1.27;100.00;99241.25;6111713;19;20454;-71
2024/01/13 03:03:31;;;;;;;6.18;3.35;;;;;;;-1.34;100.00;99234.50;6110596;19;20003;-71
2024/01/13 03:05:31;;;;;;;4.57;3.28;;;;;;;-1.39;100.00;99226.41;6111061;19;20010;-71
2024/01/13 03:07:31;;;;;;;6.93;4.00;;;;;;;-1.42;100.00;99222.34;6111812;19;20354;-71
2024/01/13 03:09:32;;;;;;;5.78;3.33;;;;;;;-1.41;100.00;99223.94;6112333;19;20451;-71
2024/01/13 03:11:32;;;;;;;9.93;3.95;;;;;;;-1.37;100.00;99213.34;6111229;19;20085;-71
2024/01/13 03:13:32;;;;;;;6.38;3.25;;;;;;;-1.44;100.00;99213.66;6109818;19;20095;-71
2024/01/13 03:15:32;;;;;;;6.85;3.70;;;;;;;-1.43;100.00;99213.38;6110702;19;20530;-71
2024/01/13 03:17:33;;;;;;;5.03;3.17;;;;;;;-1.45;100.00;99212.06;6111579;19;20036;-71
2024/01/13 03:19:33;;;;;;;5.18;3.17;;;;;;;-1.43;100.00;99215.28;6111067;19;20030;-71
2024/01/13 03:21:33;;;;;;;6.43;3.35;;;;;;;-1.43;100.00;99205.25;6110894;19;20377;-71
2024/01/13 03:23:34;;;;;;;5.70;3.13;;;;;;;-1.46;100.00;99205.00;6111031;19;20011;-71
2024/01/13 03:25:34;;;;;;;6.72;3.25;;;;;;;-1.52;100.00;99189.84;6110866;19;20006;-71
2024/01/13 03:27:34;;;;;;;5.68;3.55;;;;;;;-1.57;100.00;99187.13;6110491;19;20002;-71
2024/01/13 03:29:34;;;;;;;5.65;3.53;;;;;;;-1.61;100.00;99184.19;6111490;19;20840;-71
2024/01/13 03:31:35;;;;;;;5.40;3.35;;;;;;;-1.67;100.00;99190.72;6111349;19;20007;-71
2024/01/13 03:33:35;;;;;;;6.45;3.83;;;;;;;-1.70;100.00;99185.88;6109085;19;20348;-71
2024/01/13 03:35:35;;;;;;;7.00;3.60;;;;;;;-1.72;100.00;99180.75;6111202;19;20005;-71
2024/01/13 03:37:36;;;;;;;5.78;3.15;;;;;;;-1.76;100.00;99163.38;6109936;19;20013;-71
2024/01/13 03:39:36;;;;;;;7.28;3.03;;;;;;;-1.76;100.00;99163.38;6110993;19;20459;-71
2024/01/13 03:41:36;;;;;;;5.35;3.72;;;;;;;-1.79;100.00;99153.09;6110487;19;19999;-71
2024/01/13 03:43:37;;;;;;;5.13;2.80;;;;;;;-1.81;100.00;99151.78;6110592;19;20030;-71
2024/01/13 03:45:37;;;;;;;6.82;3.10;;;;;;;-1.81;100.00;99143.63;6109447;19;19998;-71
2024/01/13 03:47:38;;;;;;;4.28;2.75;;;;;;;-1.82;100.00;99150.13;6110368;19;20086;-71
2024/01/13 03:49:39;;;;;;;5.53;3.05;;;;;;;-1.84;100.00;99146.88;6110682;19;20007;-71
2024/01/13 03:51:39;;;;;;;6.07;3.50;;;;;;;-1.81;100.00;99135.50;6111100;19;20019;-71
2024/01/13 03:53:39;;;;;;;6.10;3.75;;;;;;;-1.80;100.00;99137.91;6107844;19;20025;-71
2024/01/13 03:55:40;;;;;;;7.15;3.50;;;;;;;-1.79;100.00;99136.03;6110407;19;20731;-71
2024/01/13 03:57:40;;;;;;;6.53;3.90;;;;;;;-1.78;100.00;99137.63;6110284;19;20005;-71
2024/01/13 03:59:40;;;;;;;7.45;3.63;;;;;;;-1.78;100.00;99140.34;6110199;19;20003;-71
2024/01/13 04:01:41;;;;;;;7.03;3.30;;;;;;;-1.78;100.00;99130.31;6110569;19;20574;-71
2024/01/13 04:03:41;;;;;;;5.72;3.20;;;;;;;-1.79;100.00;99131.41;6109681;19;20275;-71
2024/01/13 04:05:41;;;;;;;8.18;3.97;;;;;;;-1.79;100.00;99136.81;6109788;19;20013;-71
2024/01/13 04:07:42;;;;;;;6.57;3.53;;;;;;;-1.74;100.00;99138.69;6110055;19;20464;-71
2024/01/13 04:09:42;;;;;;;7.65;4.05;;;;;;;-1.71;100.00;99132.72;6110826;19;20014;-71
2024/01/13 04:11:42;;;;;;;7.45;4.68;;;;;;;-1.67;100.00;99146.50;6110450;19;19999;-71
2024/01/13 04:13:43;;;;;;;7.93;5.13;;;;;;;-1.66;100.00;99150.84;6108475;19;20382;-71
2024/01/13 04:15:43;;;;;;;8.20;4.63;;;;;;;-1.67;100.00;99146.50;6109905;19;20009;-72
2024/01/13 04:17:49;;;;;;;7.35;4.03;;;;;;;-1.62;100.00;99155.44;6109772;19;20340;-72
2024/01/13 04:19:49;;;;;;;5.43;3.67;;;;;;;-1.56;100.00;99140.75;6110233;19;20086;-71
2024/01/13 04:21:50;;;;;;;7.43;4.10;;;;;;;-1.51;100.00;99143.41;6107250;19;20003;-71
2024/01/13 04:23:51;;;;;;;7.05;4.07;;;;;;;-1.48;100.00;99144.78;6109313;19;20010;-71
2024/01/13 04:25:51;;;;;;;6.72;4.03;;;;;;;-1.50;100.00;99130.66;6109492;19;20458;-71
2024/01/13 04:27:53;;;;;;;5.45;3.85;;;;;;;-1.53;100.00;99134.75;6109296;19;19999;-72
2024/01/13 04:29:53;;;;;;;6.78;4.20;;;;;;;-1.56;100.00;99126.38;6109457;19;20002;-72
2024/01/13 04:31:53;;;;;;;6.18;3.70;;;;;;;-1.57;100.00;99128.28;6110031;19;20017;-72
2024/01/13 04:33:54;;;;;;;6.43;3.67;;;;;;;-1.50;100.00;99122.50;6108304;19;20006;-71
2024/01/13 04:35:54;;;;;;;6.72;3.88;;;;;;;-1.45;100.00;99111.63;6108760;19;20476;-71
2024/01/13 04:37:55;;;;;;;6.63;3.83;;;;;;;-1.47;100.00;99109.19;6109114;19;20312;-71
2024/01/13 04:39:55;;;;;;;5.63;3.67;;;;;;;-1.50;100.00;99114.38;6107906;19;20003;-71
2024/01/13 04:41:56;;;;;;;7.25;3.67;;;;;;;-1.55;100.00;99109.81;6109190;19;20006;-71
2024/01/13 04:43:56;;;;;;;8.10;4.03;;;;;;;-1.61;100.00;99102.78;6107901;19;19999;-71
2024/01/13 04:45:56;;;;;;;7.72;4.32;;;;;;;-1.60;100.00;99106.31;6109409;19;20040;-71
2024/01/13 04:47:58;;;;;;;6.75;4.30;;;;;;;-1.61;100.00;99110.94;6108544;19;20451;-71
2024/01/13 04:49:58;;;;;;;7.97;4.45;;;;;;;-1.57;100.00;99103.84;6109113;19;20006;-71
2024/01/13 04:51:58;;;;;;;6.43;3.92;;;;;;;-1.52;100.00;99100.28;6109722;19;20002;-71
2024/01/13 04:53:59;;;;;;;7.18;4.47;;;;;;;-1.57;100.00;99097.59;6109082;19;20497;-71
2024/01/13 04:55:59;;;;;;;8.43;4.18;;;;;;;-1.58;100.00;99095.97;6108133;19;20070;-71
2024/01/13 04:58:00;;;;;;;7.70;4.32;;;;;;;-1.63;100.00;99090.59;6109160;19;20026;-71
2024/01/13 05:00:00;;;;;;;6.97;4.47;;;;;;;-1.66;100.00;99077.59;6108206;19;20007;-71
2024/01/13 05:02:00;;;;;;;7.13;4.40;;;;;;;-1.65;100.00;99076.50;6109536;19;20007;-71
2024/01/13 05:04:01;;;;;;;6.05;4.07;;;;;;;-1.60;100.00;99068.31;6108773;19;20027;-71
2024/01/13 05:06:01;;;;;;;6.35;4.13;;;;;;;-1.59;100.00;99072.66;6109000;19;20463;-71
2024/01/13 05:08:01;;;;;;;6.35;4.07;;;;;;;-1.61;100.00;99069.41;6107478;19;19995;-71
2024/01/13 05:10:03;;;;;;;7.38;4.35;;;;;;;-1.60;100.00;99076.47;6108793;19;19990;-71
2024/01/13 05:12:05;;;;;;;6.22;4.22;;;;;;;-1.63;100.00;99080.56;6108280;19;20213;-71
2024/01/13 05:14:05;;;;;;;6.22;4.35;;;;;;;-1.64;100.00;99087.09;6106934;19;20006;-71
2024/01/13 05:16:06;;;;;;;6.20;3.75;;;;;;;-1.62;100.00;99082.16;6106593;19;20026;-71
2024/01/13 05:18:06;;;;;;;9.00;4.80;;;;;;;-1.59;100.00;99078.06;6108685;19;20420;-71
2024/01/13 05:20:08;;;;;;;7.57;4.50;;;;;;;-1.58;100.00;99072.34;6108393;19;19999;-71
2024/01/13 05:22:08;;;;;;;7.75;4.60;;;;;;;-1.59;100.00;99072.66;6108627;19;20015;-71
2024/01/13 05:24:08;;;;;;;8.55;4.63;;;;;;;-1.55;100.00;99065.56;6106336;19;20369;-71
2024/01/13 05:26:08;;;;;;;6.55;4.22;;;;;;;-1.60;100.00;99058.28;6108245;19;20019;-71
2024/01/13 05:28:09;;;;;;;8.30;4.65;;;;;;;-1.62;100.00;99065.91;6107267;19;20050;-71
2024/01/13 05:30:10;;;;;;;9.30;4.82;;;;;;;-1.56;100.00;99072.09;6109078;19;19994;-71
2024/01/13 05:32:10;;;;;;;10.43;6.15;;;;;;;-1.56;100.00;99069.38;6108531;19;20330;-71
2024/01/13 05:34:10;;;;;;;12.73;6.32;;;;;;;-1.60;100.00;99071.03;6106321;19;19998;-71
2024/01/13 05:36:11;;;;;;;9.27;5.43;;;;;;;-1.66;100.00;99086.53;6107027;19;19998;-71
2024/01/13 05:38:11;;;;;;;9.15;5.30;;;;;;;-1.64;100.00;99091.69;6108349;19;20012;-71
2024/01/13 05:40:12;;;;;;;11.45;5.85;;;;;;;-1.70;100.00;99083.59;6108561;19;20009;-71
2024/01/13 05:42:12;;;;;;;11.48;6.00;;;;;;;-1.63;100.00;99071.59;6108061;19;20006;-71
2024/01/13 05:44:12;;;;;;;11.90;6.20;;;;;;;-1.67;100.00;99078.69;6105713;19;20028;-71
2024/01/13 05:46:13;;;;;;;9.13;5.63;;;;;;;-1.63;100.00;99064.28;6108076;19;20003;-71
2024/01/13 05:48:13;;;;;;;10.68;5.82;;;;;;;-1.64;100.00;99070.00;6097097;19;19999;-71
2024/01/13 05:50:13;;;;;;;10.93;6.68;;;;;;;-1.67;100.00;99073.25;6107398;19;20006;-71
2024/01/13 05:52:14;;;;;;;11.43;6.32;;;;;;;-1.70;100.00;99078.16;6108693;19;20003;-71
2024/01/13 05:54:14;;;;;;;9.43;5.13;;;;;;;-1.56;100.00;99072.09;6105972;19;20002;-71
2024/01/13 05:56:14;;;;;;;9.00;5.50;;;;;;;-1.60;100.00;99079.97;6105624;19;20010;-71
2024/01/13 05:58:15;;;;;;;11.65;5.80;;;;;;;-1.66;100.00;99072.97;6108197;19;20462;-71
2024/01/13 06:00:15;;;;;;;9.82;5.47;;;;;;;-1.68;100.00;99079.78;6107654;19;20010;-71
2024/01/13 06:02:16;;;;;;;10.73;5.90;;;;;;;-1.71;100.00;99062.16;6107054;19;20455;-71
2024/01/13 06:04:16;;;;;;;8.00;5.38;;;;;;;-1.78;100.00;99065.19;6103868;19;20010;-71
2024/01/13 06:06:17;;;;;;;6.85;5.00;;;;;;;-1.82;100.00;99060.59;6106840;19;20005;-71
2024/01/13 06:08:17;;;;;;;9.10;5.00;;;;;;;-1.77;100.00;99057.88;6106908;19;20006;-71
2024/01/13 06:10:17;;;;;;;9.73;5.60;;;;;;;-1.79;100.00;99069.00;6106733;19;20003;-71
2024/01/13 06:12:18;;;;;;;7.28;4.68;;;;;;;-1.69;100.00;99070.81;6107255;19;20002;-71
2024/01/13 06:14:18;;;;;;;8.95;5.60;;;;;;;-1.73;100.00;99061.66;6104193;19;19998;-71
2024/01/13 06:16:18;;;;;;;10.27;5.15;;;;;;;-1.74;100.00;99058.13;6104433;19;20447;-71
2024/01/13 06:18:19;;;;;;;9.70;5.45;;;;;;;-1.73;100.00;99062.47;6105040;19;20034;-71
2024/01/13 06:20:19;;;;;;;8.30;5.30;;;;;;;-1.74;100.00;99062.72;6106803;19;20002;-71
2024/01/13 06:22:19;;;;;;;8.88;5.45;;;;;;;-1.76;100.00;99068.44;6106095;19;20054;-71
2024/01/13 06:24:20;;;;;;;9.68;5.57;;;;;;;-1.79;100.00;99062.78;6103285;19;20248;-71
2024/01/13 06:26:20;;;;;;;9.07;5.65;;;;;;;-1.79;100.00;99057.34;6105682;19;20364;-71
2024/01/13 06:28:20;;;;;;;9.90;6.03;;;;;;;-1.80;100.00;99067.41;6111107;19;20031;-71
2024/01/13 06:30:20;;;;;;;10.70;5.72;;;;;;;-1.83;100.00;99062.50;6110916;19;20023;-71
2024/01/13 06:32:21;;;;;;;10.30;6.13;;;;;;;-1.80;100.00;99070.09;6110673;19;20041;-71
2024/01/13 06:34:21;;;;;;;9.40;5.82;;;;;;;-1.81;100.00;99049.50;6108118;19;20014;-71
2024/01/13 06:36:22;;;;;;;10.98;5.95;;;;;;;-1.77;100.00;99066.00;6111255;19;20006;-71
2024/01/13 06:38:22;;;;;;;9.38;5.53;;;;;;;-1.82;100.00;99050.59;6111381;19;20321;-71
2024/01/13 06:40:22;;;;;;;8.98;5.47;;;;;;;-1.79;100.00;99052.72;6110420;19;20009;-71
2024/01/13 06:42:23;;;;;;;10.25;5.55;;;;;;;-1.74;100.00;99054.59;6111328;19;20014;-71
2024/01/13 06:44:23;;;;;;;10.15;5.70;;;;;;;-1.64;100.00;99061.84;6109942;19;20420;-71
2024/01/13 06:46:23;;;;;;;8.88;5.65;;;;;;;-1.68;100.00;99060.78;6110160;19;20825;-71
2024/01/13 06:48:24;;;;;;;10.68;5.60;;;;;;;-1.67;100.00;99057.78;6105592;19;20010;-71
2024/01/13 06:50:24;;;;;;;9.40;5.25;;;;;;;-1.71;100.00;99062.97;6103625;19;20243;-71
2024/01/13 06:52:24;;;;;;;11.35;6.32;;;;;;;-1.72;100.00;99058.66;6103830;19;20541;-71
2024/01/13 06:54:25;;;;;;;9.68;6.10;;;;;;;-1.74;100.00;99055.41;6101622;19;20021;-71
2024/01/13 06:56:25;;;;;;;9.40;5.72;;;;;;;-1.67;100.00;99063.22;6102322;19;20347;-71
2024/01/13 06:58:25;;;;;;;11.95;6.78;;;;;;;-1.75;100.00;99045.63;6103517;19;20018;-71
2024/01/13 07:00:26;;;;;;;11.43;7.05;;;;;;;-1.74;100.00;99052.72;6103355;19;21128;-71
2024/01/13 07:02:26;;;;;;;11.88;6.55;;;;;;;-1.72;100.00;99057.84;6103223;19;20134;-71
2024/01/13 07:04:28;;;;;;;13.73;7.18;;;;;;;-1.71;100.00;99059.47;6101896;19;20007;-71
2024/01/13 07:06:29;;;;;;;15.63;7.35;;;;;;;-1.67;100.00;99054.25;6103043;19;20325;-71
2024/01/13 07:08:29;;;;;;;12.23;7.53;;;;;;;-1.72;100.00;99065.97;6101831;19;20033;-71
2024/01/13 07:10:29;;;;;;;15.90;8.30;;;;;;;-1.66;100.00;99055.88;6103509;19;20003;-71
2024/01/13 07:12:30;;;;;;;15.70;7.93;;;;;;;-1.74;100.00;99065.44;6102214;19;20653;-71
2024/01/13 07:14:31;;;;;;;14.48;8.43;;;;;;;-1.68;100.00;99061.59;6100164;19;20765;-71
2024/01/13 07:16:32;;;;;;;13.93;7.43;;;;;;;-1.70;100.00;99050.22;6102436;19;20033;-71
2024/01/13 07:18:32;;;;;;;15.25;7.40;;;;;;;-1.64;100.00;99049.09;6102635;19;20381;-71
2024/01/13 07:20:32;;;;;;;13.68;7.38;;;;;;;-1.64;100.00;99043.66;6101244;19;20003;-71
2024/01/13 07:22:34;;;;;;;10.70;6.93;;;;;;;-1.51;100.00;99036.75;6100721;19;20010;-71
2024/01/13 07:24:34;;;;;;;12.77;7.13;;;;;;;-1.54;100.00;99038.16;6101765;19;20475;-71
2024/01/13 07:26:41;;;;;;;11.93;6.93;;;;;;;-1.58;100.00;99034.38;6103714;19;20007;-71
2024/01/13 07:28:44;;;;;;;9.70;7.00;;;;;;;-1.62;100.00;99036.03;6102031;19;20522;-71
2024/01/13 07:30:45;;;;;;;14.10;6.88;;;;;;;-1.58;100.00;99036.28;6103751;19;20032;-71
2024/01/13 07:32:45;;;;;;;15.85;7.68;;;;;;;-1.55;100.00;99033.81;6102658;19;20565;-71
2024/01/13 07:34:45;;;;;;;11.88;7.15;;;;;;;-1.48;100.00;99045.16;6102702;19;20021;-71
2024/01/13 07:36:46;;;;;;;11.95;6.55;;;;;;;-1.50;100.00;99043.81;6102695;19;20019;-71
2024/01/13 07:38:46;;;;;;;11.15;6.90;;;;;;;-1.51;100.00;99028.63;6101303;19;20022;-71
2024/01/13 07:40:46;;;;;;;11.65;6.50;;;;;;;-1.51;100.00;99023.19;6103439;19;20410;-71
2024/01/13 07:42:48;;;;;;;12.75;6.82;;;;;;;-1.48;100.00;99031.59;6103431;19;20392;-71
2024/01/13 07:44:48;;;;;;;12.27;6.30;;;;;;;-1.53;100.00;99017.25;6102082;19;20316;-71
2024/01/13 07:46:49;;;;;;;11.35;6.28;;;;;;;-1.55;100.00;99017.53;6103933;19;20144;-71
2024/01/13 07:48:49;;;;;;;13.68;6.90;;;;;;;-1.56;100.00;99015.13;6106373;19;20767;-71
2024/01/13 07:50:49;;;;;;;11.45;5.68;;;;;;;-1.56;100.00;99020.53;6111426;19;20018;-70
2024/01/13 07:52:50;;;;;;;12.02;7.40;;;;;;;-1.55;100.00;99011.31;6110239;19;20090;-71
2024/01/13 07:54:50;;;;;;;15.77;7.88;;;;;;;-1.54;100.00;99013.72;6110528;19;20006;-71
2024/01/13 07:56:52;;;;;;;11.93;7.43;;;;;;;-1.57;100.00;99006.16;6111177;19;20644;-71
2024/01/13 07:58:52;;;;;;;12.20;6.57;;;;;;;-1.58;100.00;99006.41;6110194;19;20010;-71
2024/01/13 08:00:53;;;;;;;11.13;6.22;;;;;;;-1.55;100.00;99003.16;6109440;19;20419;-71
2024/01/13 08:02:56;;;;;;;12.85;6.47;;;;;;;-1.47;100.00;98997.91;6111048;19;20007;-71
2024/01/13 08:04:56;;;;;;;16.48;7.90;;;;;;;-1.49;100.00;98997.41;6109569;19;20010;-71
2024/01/13 08:06:57;;;;;;;14.30;7.80;;;;;;;-1.49;100.00;98996.56;6110083;19;20479;-71
2024/01/13 08:08:57;;;;;;;15.65;7.63;;;;;;;-1.44;100.00;98999.25;6108823;19;20023;-71
2024/01/13 08:10:57;;;;;;;20.35;7.95;;;;;;;-1.45;100.00;98992.19;6110104;19;20018;-71
2024/01/13 08:13:00;;;;;;;15.27;6.90;;;;;;;-1.39;100.00;98993.78;6109910;19;20060;-71
2024/01/13 08:15:00;;;;;;;12.48;7.07;;;;;;;-1.33;100.00;98987.16;6109870;19;20015;-71
2024/01/13 08:17:01;;;;;;;13.98;7.30;;;;;;;-1.35;100.00;98985.84;6109678;19;20011;-71
2024/01/13 08:19:02;;;;;;;15.02;8.68;;;;;;;-1.33;100.00;98992.59;6109845;19;20018;-71
2024/01/13 08:21:02;;;;;;;18.83;11.20;;;;;;;-1.36;100.00;98986.94;6107518;19;20006;-71
2024/01/13 08:23:03;;;;;;;21.95;11.05;;;;;;;-1.42;100.00;98989.69;6110365;19;20010;-70
2024/01/13 08:25:03;;;;;;;18.67;10.20;;;;;;;-1.38;100.00;98981.00;6109737;19;20017;-71
2024/01/13 08:27:04;;;;;;;23.15;11.48;;;;;;;-1.34;100.00;98974.69;6110000;19;20014;-71
2024/01/13 08:29:04;;;;;;;18.20;9.45;;;;;;;-1.35;100.00;98970.38;6108156;19;20024;-71
2024/01/13 08:31:04;;;;;;;15.02;8.75;;;;;;;-1.31;100.00;98962.47;6111025;19;20014;-71
2024/01/13 08:33:05;;;;;;;16.85;9.63;;;;;;;-1.28;100.00;98976.28;6109253;19;20006;-71
2024/01/13 08:35:07;;;;;;;16.33;9.55;;;;;;;-1.29;100.00;98963.78;6107771;19;20069;-71
2024/01/13 08:37:07;;;;;;;18.65;10.43;;;;;;;-1.33;100.00;98956.50;6109315;19;20478;-71
2024/01/13 08:39:07;;;;;;;15.60;8.45;;;;;;;-1.34;100.00;98949.47;6110034;19;20210;-71
2024/01/13 08:41:08;;;;;;;13.02;7.65;;;;;;;-1.23;100.00;98935.50;6108511;19;20017;-71
2024/01/13 08:43:08;;;;;;;14.05;7.90;;;;;;;-1.22;100.00;98933.59;6106890;19;20010;-71
2024/01/13 08:45:09;;;;;;;17.05;8.35;;;;;;;-1.20;100.00;98944.97;6107237;19;20006;-71
2024/01/13 08:47:12;;;;;;;20.58;9.38;;;;;;;-1.24;100.00;98942.03;6109292;19;20006;-71
2024/01/13 08:49:13;;;;;;;16.67;9.30;;;;;;;-1.15;100.00;98944.91;6107580;19;20080;-71
2024/01/13 08:51:14;;;;;;;18.90;9.32;;;;;;;-1.19;100.00;98939.25;6108649;19;20006;-71
2024/01/13 08:53:14;;;;;;;18.67;9.60;;;;;;;-1.16;100.00;98941.41;6109249;19;20010;-71
2024/01/13 08:55:14;;;;;;;15.82;8.57;;;;;;;-1.17;100.00;98938.94;6108946;19;20002;-71
2024/01/13 08:57:14;;;;;;;17.88;9.40;;;;;;;-1.17;100.00;98918.03;6108991;19;20459;-71
2024/01/13 08:59:15;;;;;;;20.08;9.75;;;;;;;-1.18;100.00;98910.19;6110075;19;20029;-71
2024/01/13 09:01:15;;;;;;;21.33;8.98;;;;;;;-1.13;100.00;98902.78;6109970;19;20006;-71
2024/01/13 09:03:16;;;;;;;17.27;9.60;;;;;;;-1.05;100.00;98912.19;6109346;19;20335;-71
2024/01/13 09:05:16;;;;;;;19.67;9.18;;;;;;;-1.08;100.00;98901.91;6108668;19;20019;-71
2024/01/13 09:07:17;;;;;;;19.83;9.43;;;;;;;-1.09;100.00;98907.63;6109496;19;20346;-71
2024/01/13 09:09:17;;;;;;;16.83;9.20;;;;;;;-1.14;100.00;98912.03;6108987;19;20027;-71
2024/01/13 09:11:18;;;;;;;18.52;9.75;;;;;;;-1.06;100.00;98909.78;6109888;19;20007;-71
2024/01/13 09:13:18;;;;;;;24.65;13.25;;;;;;;-1.07;100.00;98902.72;6108775;19;20030;-71
2024/01/13 09:15:18;;;;;;;20.48;10.60;;;;;;;-1.05;100.00;98904.06;6108625;19;20003;-71
2024/01/13 09:17:19;;;;;;;36.47;13.23;;;;;;;-1.03;100.00;98893.69;6107586;19;19999;-71